createdAt,value
2019-04-26T00:01:24.725Z,12.50
2019-04-26T00:03:54.724Z,12.50
2019-04-26T00:06:24.958Z,12.50
2019-04-26T00:09:05.621Z,12.50
2019-04-26T00:11:45.108Z,12.40
2019-04-26T00:14:16.556Z,12.40
2019-04-26T00:16:57.181Z,12.40
2019-04-26T00:19:27.325Z,12.40
2019-04-26T00:21:57.408Z,12.30
2019-04-26T00:24:28.564Z,12.30
2019-04-26T00:26:59.492Z,12.20
2019-04-26T00:29:29.366Z,12.20
2019-04-26T00:31:59.161Z,12.30
2019-04-26T00:34:28.933Z,12.30
2019-04-26T00:36:58.655Z,12.30
2019-04-26T00:39:28.495Z,12.30
2019-04-26T00:41:58.718Z,12.20
2019-04-26T00:44:28.589Z,12.20
2019-04-26T00:47:01.087Z,12.10
2019-04-26T00:49:42.958Z,12.10
2019-04-26T00:52:04.354Z,12.10
2019-04-26T00:54:35.001Z,12.10
2019-04-26T00:57:05.006Z,12.10
2019-04-26T00:59:37.738Z,12.00
2019-04-26T01:02:09.219Z,12.00
2019-04-26T01:04:39.057Z,12.00
2019-04-26T01:07:08.855Z,12.00
2019-04-26T01:09:38.643Z,12.00
2019-04-26T01:12:08.437Z,12.00
2019-04-26T01:14:39.211Z,12.00
2019-04-26T01:17:09.036Z,11.90
2019-04-26T01:19:40.957Z,12.00
2019-04-26T01:22:13.666Z,11.90
2019-04-26T01:24:45.372Z,11.90
2019-04-26T01:27:18.455Z,11.90
2019-04-26T01:29:53.343Z,11.90
2019-04-26T01:32:24.140Z,11.90
2019-04-26T01:34:55.099Z,11.80
2019-04-26T01:37:24.872Z,11.80
2019-04-26T01:40:00.182Z,11.80
2019-04-26T01:42:32.723Z,11.80
2019-04-26T01:45:09.039Z,11.70
2019-04-26T01:47:39.733Z,11.70
2019-04-26T01:50:10.833Z,11.70
2019-04-26T01:52:43.749Z,11.70
2019-04-26T01:55:14.272Z,11.70
2019-04-26T01:57:44.171Z,11.70
2019-04-26T02:00:16.491Z,11.70
2019-04-26T02:02:47.870Z,11.70
2019-04-26T02:05:22.598Z,11.70
2019-04-26T02:07:52.904Z,11.80
2019-04-26T02:10:25.202Z,11.70
2019-04-26T02:12:56.980Z,11.70
2019-04-26T02:15:29.780Z,11.70
2019-04-26T02:18:00.602Z,11.70
2019-04-26T02:20:52.923Z,11.70
2019-04-26T02:23:25.162Z,11.70
2019-04-26T02:25:55.963Z,11.70
2019-04-26T02:28:26.713Z,11.70
2019-04-26T02:30:56.635Z,11.70
2019-04-26T02:33:27.451Z,11.70
2019-04-26T02:35:59.012Z,11.70
2019-04-26T02:38:31.433Z,11.60
2019-04-26T02:41:01.340Z,11.70
2019-04-26T02:43:33.220Z,11.60
2019-04-26T02:46:05.899Z,11.60
2019-04-26T02:48:43.377Z,11.60
2019-04-26T02:51:28.709Z,11.60
2019-04-26T02:54:01.726Z,11.60
2019-04-26T02:56:43.076Z,11.60
2019-04-26T02:59:32.356Z,11.60
2019-04-26T03:02:04.318Z,11.60
2019-04-26T03:04:39.563Z,11.50
2019-04-26T03:07:12.459Z,11.50
2019-04-26T03:09:45.444Z,11.50
2019-04-26T03:12:17.643Z,11.50
2019-04-26T03:15:12.661Z,11.40
2019-04-26T03:17:38.139Z,11.40
2019-04-26T03:20:14.963Z,11.30
2019-04-26T03:23:08.771Z,11.20
2019-04-26T03:25:50.062Z,11.10
2019-04-26T03:28:41.642Z,11.10
2019-04-26T03:31:26.066Z,11.10
2019-04-26T03:34:02.732Z,11.10
2019-04-26T03:36:40.604Z,11.10
2019-04-26T03:39:17.018Z,11.10
2019-04-26T03:42:02.898Z,11.10
2019-04-26T03:44:40.419Z,11.10
2019-04-26T03:47:12.894Z,11.10
2019-04-26T03:49:54.340Z,11.10
2019-04-26T03:52:45.754Z,11.00
2019-04-26T03:55:29.061Z,11.00
2019-04-26T03:58:29.122Z,10.90
2019-04-26T04:01:03.194Z,10.90
2019-04-26T04:03:43.478Z,10.90
2019-04-26T04:06:16.042Z,10.90
2019-04-26T04:08:51.527Z,10.90
2019-04-26T04:11:24.364Z,10.80
2019-04-26T04:13:57.151Z,10.80
2019-04-26T04:16:41.311Z,10.80
2019-04-26T04:19:31.624Z,10.80
2019-04-26T04:22:10.809Z,10.70
2019-04-26T04:24:45.420Z,10.70
2019-04-26T04:27:20.655Z,10.70
2019-04-26T04:29:55.530Z,10.70
2019-04-26T04:32:30.478Z,10.70
2019-04-26T04:35:06.482Z,10.70
2019-04-26T04:37:54.936Z,10.70
2019-04-26T04:40:19.445Z,10.70
2019-04-26T04:43:00.071Z,10.70
2019-04-26T04:46:09.363Z,10.60
2019-04-26T04:49:14.239Z,10.60
2019-04-26T04:52:08.004Z,10.60
2019-04-26T04:55:06.613Z,10.60
2019-04-26T04:57:54.927Z,10.50
2019-04-26T05:00:47.206Z,10.50
2019-04-26T05:03:27.277Z,10.50
2019-04-26T05:06:10.221Z,10.50
2019-04-26T05:09:00.533Z,10.60
2019-04-26T05:11:52.002Z,10.60
2019-04-26T05:14:43.691Z,10.60
2019-04-26T05:17:23.512Z,10.60
2019-04-26T05:20:14.161Z,10.60
2019-04-26T05:22:55.554Z,10.60
2019-04-26T05:25:58.619Z,10.60
2019-04-26T05:28:46.188Z,10.60
2019-04-26T05:31:26.419Z,10.60
2019-04-26T05:34:02.743Z,10.60
2019-04-26T05:36:38.259Z,10.60
2019-04-26T05:39:10.579Z,10.60
2019-04-26T05:41:51.548Z,10.70
2019-04-26T05:44:35.305Z,10.60
2019-04-26T05:47:24.678Z,10.70
2019-04-26T05:50:23.354Z,10.70
2019-04-26T05:53:06.697Z,10.70
2019-04-26T05:56:09.787Z,10.80
2019-04-26T05:58:52.901Z,10.80
2019-04-26T06:02:05.361Z,10.80
2019-04-26T06:04:48.255Z,10.80
2019-04-26T06:07:37.900Z,10.80
2019-04-26T06:10:37.668Z,10.90
2019-04-26T06:13:20.736Z,10.90
2019-04-26T06:16:03.841Z,10.90
2019-04-26T06:19:01.984Z,11.00
2019-04-26T06:21:37.810Z,11.00
2019-04-26T06:24:37.680Z,11.10
2019-04-26T06:27:32.463Z,11.10
2019-04-26T06:30:10.809Z,11.20
2019-04-26T06:32:55.947Z,11.20
2019-04-26T06:35:21.040Z,11.20
2019-04-26T06:38:18.479Z,11.20
2019-04-26T06:41:27.494Z,11.20
2019-04-26T06:44:11.016Z,11.20
2019-04-26T06:47:07.199Z,11.10
2019-04-26T06:50:11.979Z,11.20
2019-04-26T06:53:11.974Z,11.30
2019-04-26T06:55:54.977Z,11.50
2019-04-26T06:58:39.659Z,11.60
2019-04-26T07:01:20.169Z,11.70
2019-04-26T07:03:58.179Z,11.90
2019-04-26T07:06:39.581Z,12.00
2019-04-26T07:09:11.642Z,12.00
2019-04-26T07:13:59.169Z,12.50
2019-04-26T07:16:46.182Z,14.10
2019-04-26T07:20:04.536Z,16.20
2019-04-26T07:23:13.068Z,17.50
2019-04-26T07:25:47.436Z,18.60
2019-04-26T07:28:38.351Z,19.30
2019-04-26T07:31:31.970Z,19.60
2019-04-26T07:34:15.366Z,19.90
2019-04-26T07:37:11.387Z,20.10
2019-04-26T07:40:09.200Z,20.20
2019-04-26T07:42:49.301Z,20.30
2019-04-26T07:45:46.335Z,20.30
2019-04-26T07:48:24.818Z,20.30
2019-04-26T07:51:11.533Z,20.30
2019-04-26T07:53:50.291Z,20.30
2019-04-26T07:56:35.004Z,20.30
2019-04-26T07:59:36.517Z,20.30
2019-04-26T08:02:16.712Z,20.20
2019-04-26T08:04:58.202Z,20.20
2019-04-26T08:07:30.970Z,20.30
2019-04-26T08:10:07.765Z,20.30
2019-04-26T08:12:40.546Z,20.20
2019-04-26T08:15:15.680Z,20.20
2019-04-26T08:17:58.809Z,20.30
2019-04-26T08:20:38.791Z,20.30
2019-04-26T08:23:28.181Z,20.30
2019-04-26T08:25:46.171Z,20.30
2019-04-26T08:28:18.254Z,20.30
2019-04-26T08:30:52.541Z,20.30
2019-04-26T08:33:26.843Z,20.30
2019-04-26T08:35:58.387Z,20.30
2019-04-26T08:38:29.965Z,20.40
2019-04-26T08:41:00.370Z,20.40
2019-04-26T08:43:43.624Z,20.40
2019-04-26T08:46:28.313Z,20.30
2019-04-26T08:49:06.915Z,20.30
2019-04-26T08:51:39.147Z,20.30
2019-04-26T08:54:11.888Z,20.40
2019-04-26T08:56:44.589Z,20.40
2019-04-26T08:59:20.132Z,20.40
2019-04-26T09:01:53.341Z,20.40
2019-04-26T09:04:32.890Z,20.40
2019-04-26T09:07:09.767Z,20.40
2019-04-26T09:09:42.150Z,20.30
2019-04-26T09:12:22.846Z,20.30
2019-04-26T09:14:49.253Z,20.30
2019-04-26T09:17:19.084Z,20.30
2019-04-26T09:19:49.232Z,20.30
2019-04-26T09:22:27.737Z,20.40
2019-04-26T09:25:00.700Z,20.40
2019-04-26T09:27:38.423Z,20.40
2019-04-26T09:30:14.000Z,20.40
2019-04-26T09:32:45.383Z,20.40
2019-04-26T09:35:16.330Z,20.40
2019-04-26T09:37:47.172Z,20.40
2019-04-26T09:40:21.739Z,20.40
2019-04-26T09:42:53.490Z,20.40
2019-04-26T09:45:30.668Z,20.40
2019-04-26T09:48:04.778Z,20.40
2019-04-26T09:50:41.985Z,20.40
2019-04-26T09:53:11.694Z,20.40
2019-04-26T09:55:41.468Z,20.20
2019-04-26T09:58:11.299Z,20.10
2019-04-26T10:00:44.194Z,20.10
2019-04-26T10:03:12.639Z,20.20
2019-04-26T10:05:43.226Z,20.30
2019-04-26T10:08:14.526Z,20.40
2019-04-26T10:10:44.488Z,20.50
2019-04-26T10:13:18.606Z,20.50
2019-04-26T10:15:53.019Z,20.50
2019-04-26T10:18:24.417Z,20.50
2019-04-26T10:20:54.303Z,20.50
2019-04-26T10:23:24.022Z,20.50
2019-04-26T10:25:53.794Z,20.60
2019-04-26T10:28:23.900Z,20.60
2019-04-26T10:30:53.759Z,20.60
2019-04-26T10:33:23.571Z,20.60
2019-04-26T10:35:56.667Z,20.60
2019-04-26T10:38:25.480Z,20.70
2019-04-26T10:40:55.299Z,20.70
2019-04-26T10:43:25.059Z,20.80
2019-04-26T10:45:55.109Z,20.80
2019-04-26T10:48:25.051Z,20.90
2019-04-26T10:50:54.747Z,20.90
2019-04-26T10:53:30.229Z,20.90
2019-04-26T10:56:04.986Z,20.90
2019-04-26T10:58:37.759Z,20.90
2019-04-26T11:01:10.843Z,20.90
2019-04-26T11:03:40.659Z,20.90
2019-04-26T11:06:10.394Z,20.90
2019-04-26T11:08:40.174Z,20.90
2019-04-26T11:11:10.135Z,20.90
2019-04-26T11:13:39.875Z,20.90
2019-04-26T11:16:09.602Z,20.90
2019-04-26T11:18:39.376Z,20.90
2019-04-26T11:21:09.106Z,20.90
2019-04-26T11:23:41.005Z,20.90
2019-04-26T11:26:10.366Z,20.90
2019-04-26T11:28:42.028Z,20.80
2019-04-26T11:31:11.550Z,20.80
2019-04-26T11:33:44.920Z,20.80
2019-04-26T11:36:13.428Z,20.80
2019-04-26T11:38:43.169Z,20.70
2019-04-26T11:41:12.855Z,20.70
2019-04-26T11:43:42.682Z,20.70
2019-04-26T11:46:12.421Z,20.80
2019-04-26T11:48:42.115Z,20.70
2019-04-26T11:51:11.836Z,20.70
2019-04-26T11:53:44.777Z,20.70
2019-04-26T11:56:13.169Z,20.80
2019-04-26T11:58:42.948Z,20.70
2019-04-26T12:01:14.350Z,20.70
2019-04-26T12:03:45.820Z,20.70
2019-04-26T12:06:17.208Z,20.70
2019-04-26T12:08:51.414Z,20.70
2019-04-26T12:11:30.376Z,20.70
2019-04-26T12:13:55.455Z,20.70
2019-04-26T12:16:23.906Z,20.70
2019-04-26T12:18:53.726Z,20.70
2019-04-26T12:21:23.510Z,20.70
2019-04-26T12:23:55.594Z,20.70
2019-04-26T12:26:24.685Z,20.70
2019-04-26T12:28:54.326Z,20.70
2019-04-26T12:31:24.034Z,20.70
2019-04-26T12:33:53.765Z,20.70
2019-04-26T12:36:23.466Z,20.70
2019-04-26T12:38:54.272Z,20.70
2019-04-26T12:41:39.499Z,20.70
2019-04-26T12:43:59.690Z,20.70
2019-04-26T12:46:40.751Z,20.80
2019-04-26T12:49:10.908Z,20.80
2019-04-26T12:51:42.759Z,20.80
2019-04-26T12:54:12.100Z,20.80
2019-04-26T12:56:41.867Z,20.90
2019-04-26T12:59:11.712Z,20.90
2019-04-26T13:01:42.656Z,20.90
2019-04-26T13:04:12.972Z,20.80
2019-04-26T13:06:56.367Z,20.80
2019-04-26T13:09:26.877Z,20.80
2019-04-26T13:12:17.567Z,20.70
2019-04-26T13:15:07.119Z,20.70
2019-04-26T13:17:44.511Z,20.70
2019-04-26T13:20:14.387Z,20.70
2019-04-26T13:22:46.253Z,20.70
2019-04-26T13:25:24.739Z,20.70
2019-04-26T13:27:47.043Z,20.70
2019-04-26T13:30:16.838Z,20.70
2019-04-26T13:32:49.161Z,20.70
2019-04-26T13:35:18.205Z,20.70
2019-04-26T13:37:47.990Z,20.70
2019-04-26T13:40:17.738Z,20.70
2019-04-26T13:42:51.332Z,20.70
2019-04-26T13:45:38.586Z,20.70
2019-04-26T13:48:25.246Z,20.70
2019-04-26T13:51:02.457Z,20.70
2019-04-26T13:53:33.808Z,20.70
2019-04-26T13:56:03.604Z,20.70
2019-04-26T13:58:33.726Z,20.70
2019-04-26T14:01:04.112Z,20.70
2019-04-26T14:03:34.043Z,20.70
2019-04-26T14:06:03.706Z,20.70
2019-04-26T14:08:33.576Z,20.70
2019-04-26T14:11:03.290Z,20.70
2019-04-26T14:13:33.151Z,20.70
2019-04-26T14:16:03.347Z,20.80
2019-04-26T14:18:34.616Z,20.80
2019-04-26T14:21:04.471Z,20.80
2019-04-26T14:23:38.986Z,20.80
2019-04-26T14:26:22.787Z,20.90
2019-04-26T14:28:54.397Z,20.90
2019-04-26T14:31:23.838Z,20.90
2019-04-26T14:33:53.739Z,21.00
2019-04-26T14:36:26.733Z,21.10
2019-04-26T14:39:05.272Z,21.20
2019-04-26T14:41:26.230Z,21.30
2019-04-26T14:43:56.753Z,21.50
2019-04-26T14:46:26.834Z,21.70
2019-04-26T14:49:02.765Z,21.80
2019-04-26T14:51:27.997Z,22.00
2019-04-26T14:53:57.761Z,22.20
2019-04-26T14:56:29.376Z,22.30
2019-04-26T14:59:01.839Z,22.40
2019-04-26T15:01:42.402Z,22.40
2019-04-26T15:04:30.314Z,22.40
2019-04-26T15:07:02.019Z,22.50
2019-04-26T15:09:35.825Z,22.40
2019-04-26T15:12:03.542Z,22.40
2019-04-26T15:14:33.387Z,22.40
2019-04-26T15:17:03.690Z,22.30
2019-04-26T15:19:35.157Z,22.30
2019-04-26T15:22:10.256Z,22.20
2019-04-26T15:24:38.574Z,22.10
2019-04-26T15:27:07.695Z,22.10
2019-04-26T15:29:37.471Z,22.10
2019-04-26T15:32:07.194Z,22.00
2019-04-26T15:34:38.021Z,22.00
2019-04-26T15:37:07.738Z,22.00
2019-04-26T15:39:39.173Z,22.00
2019-04-26T15:42:29.306Z,22.00
2019-04-26T15:45:06.208Z,22.00
2019-04-26T15:47:54.074Z,22.00
2019-04-26T15:50:31.411Z,21.90
2019-04-26T15:53:02.517Z,21.90
2019-04-26T15:55:46.032Z,21.90
2019-04-26T15:58:15.728Z,21.90
2019-04-26T16:00:45.629Z,21.90
2019-04-26T16:03:15.581Z,21.90
2019-04-26T16:05:46.437Z,21.90
2019-04-26T16:08:16.202Z,21.90
2019-04-26T16:10:46.046Z,21.90
2019-04-26T16:13:20.725Z,21.90
2019-04-26T16:15:48.712Z,21.90
2019-04-26T16:18:19.175Z,21.90
2019-04-26T16:20:50.078Z,21.90
2019-04-26T16:23:22.415Z,21.80
2019-04-26T16:25:52.640Z,21.80
2019-04-26T16:28:25.147Z,21.80
2019-04-26T16:30:59.686Z,21.80
2019-04-26T16:33:47.169Z,21.80
2019-04-26T16:36:16.970Z,21.80
2019-04-26T16:38:48.655Z,21.80
2019-04-26T16:41:21.758Z,21.70
2019-04-26T16:43:53.205Z,21.80
2019-04-26T16:46:23.093Z,21.80
2019-04-26T16:48:55.516Z,21.70
2019-04-26T16:51:23.564Z,21.80
2019-04-26T16:54:06.869Z,21.70
2019-04-26T16:56:26.551Z,21.70
2019-04-26T16:58:56.857Z,21.70
2019-04-26T17:01:26.753Z,21.70
2019-04-26T17:03:56.480Z,21.70
2019-04-26T17:06:26.163Z,21.70
2019-04-26T17:09:45.791Z,21.70
2019-04-26T17:11:30.293Z,21.70
2019-04-26T17:14:04.102Z,21.70
2019-04-26T17:16:34.765Z,21.70
2019-04-26T17:19:04.020Z,21.70
2019-04-26T17:21:35.399Z,21.80
2019-04-26T17:24:15.914Z,21.80
2019-04-26T17:26:53.102Z,21.80
2019-04-26T17:29:22.827Z,21.80
2019-04-26T17:31:52.588Z,21.80
2019-04-26T17:34:28.873Z,21.80
2019-04-26T17:36:53.774Z,21.80
2019-04-26T17:39:23.542Z,21.80
2019-04-26T17:41:54.418Z,21.80
2019-04-26T17:44:26.687Z,21.80
2019-04-26T17:46:56.890Z,21.80
2019-04-26T17:49:28.744Z,21.80
2019-04-26T17:51:59.874Z,21.80
2019-04-26T17:54:43.797Z,21.80
2019-04-26T17:57:04.460Z,21.80
2019-04-26T17:59:34.563Z,21.80
2019-04-26T18:02:04.381Z,21.80
2019-04-26T18:04:37.055Z,21.80
2019-04-26T18:07:33.911Z,21.80
2019-04-26T18:09:43.299Z,21.80
2019-04-26T18:12:08.392Z,21.80
2019-04-26T18:14:38.259Z,21.80
2019-04-26T18:17:12.316Z,21.80
2019-04-26T18:19:43.708Z,21.80
2019-04-26T18:22:15.065Z,21.80
2019-04-26T18:24:45.065Z,21.80
2019-04-26T18:27:14.865Z,21.80
2019-04-26T18:29:45.724Z,21.80
2019-04-26T18:32:15.894Z,21.70
2019-04-26T18:34:45.534Z,21.70
2019-04-26T18:37:15.299Z,21.70
2019-04-26T18:39:45.043Z,21.70
2019-04-26T18:42:14.950Z,21.70
2019-04-26T18:44:48.070Z,21.70
2019-04-26T18:47:20.506Z,21.70
2019-04-26T18:49:52.070Z,21.70
2019-04-26T18:52:23.375Z,21.70
2019-04-26T18:54:56.857Z,21.70
2019-04-26T18:57:26.682Z,21.70
2019-04-26T18:59:56.564Z,21.70
2019-04-26T19:02:28.099Z,21.70
2019-04-26T19:04:57.754Z,21.70
2019-04-26T19:07:32.371Z,21.70
2019-04-26T19:10:02.932Z,21.70
2019-04-26T19:12:30.537Z,21.70
2019-04-26T19:15:05.997Z,21.70
2019-04-26T19:17:38.004Z,21.70
2019-04-26T19:20:18.661Z,21.70
2019-04-26T19:22:56.175Z,21.70
2019-04-26T19:25:29.964Z,21.70
2019-04-26T19:27:58.911Z,21.70
2019-04-26T19:30:29.117Z,21.70
2019-04-26T19:32:58.942Z,21.70
2019-04-26T19:35:29.756Z,21.70
2019-04-26T19:37:59.528Z,21.70
2019-04-26T19:40:29.315Z,21.60
2019-04-26T19:43:03.184Z,21.60
2019-04-26T19:45:35.567Z,21.60
2019-04-26T19:48:19.159Z,21.60
2019-04-26T19:50:48.968Z,21.60
2019-04-26T19:53:25.482Z,21.60
2019-04-26T19:56:17.455Z,21.60
2019-04-26T19:58:50.708Z,21.60
2019-04-26T20:01:24.591Z,21.60
2019-04-26T20:03:55.163Z,21.60
2019-04-26T20:06:23.326Z,21.50
2019-04-26T20:08:53.091Z,21.50
2019-04-26T20:11:23.937Z,21.50
2019-04-26T20:13:55.302Z,21.50
2019-04-26T20:16:25.958Z,21.50
2019-04-26T20:18:55.915Z,21.50
2019-04-26T20:21:25.618Z,21.50
2019-04-26T20:23:55.514Z,21.50
2019-04-26T20:26:25.292Z,21.50
2019-04-26T20:28:55.010Z,21.50
2019-04-26T20:31:29.281Z,21.50
2019-04-26T20:33:59.111Z,21.50
2019-04-26T20:36:28.890Z,21.50
2019-04-26T20:38:58.739Z,21.50
2019-04-26T20:41:28.621Z,21.50
2019-04-26T20:44:07.341Z,21.50
2019-04-26T20:46:33.753Z,21.50
2019-04-26T20:49:01.585Z,21.50
2019-04-26T20:51:32.684Z,21.50
2019-04-26T20:54:03.891Z,21.50
2019-04-26T20:56:33.786Z,21.50
2019-04-26T20:59:03.506Z,21.50
2019-04-26T21:01:33.273Z,21.50
2019-04-26T21:04:03.078Z,21.50
2019-04-26T21:06:33.846Z,21.50
2019-04-26T21:09:06.465Z,21.50
2019-04-26T21:11:38.429Z,21.50
2019-04-26T21:14:08.817Z,21.50
2019-04-26T21:16:43.642Z,21.50
2019-04-26T21:19:12.730Z,21.50
2019-04-26T21:21:48.316Z,21.40
2019-04-26T21:24:19.639Z,21.40
2019-04-26T21:26:51.364Z,21.40
2019-04-26T21:29:36.911Z,21.40
2019-04-26T21:32:20.270Z,21.40
2019-04-26T21:34:50.797Z,21.40
2019-04-26T21:37:23.135Z,21.40
2019-04-26T21:39:57.298Z,21.30
2019-04-26T21:42:27.019Z,21.40
2019-04-26T21:44:56.791Z,21.30
2019-04-26T21:47:27.629Z,21.30
2019-04-26T21:49:58.832Z,21.30
2019-04-26T21:52:29.459Z,21.30
2019-04-26T21:54:59.186Z,21.30
2019-04-26T21:57:31.642Z,21.30
2019-04-26T22:00:00.547Z,21.30
2019-04-26T22:02:36.080Z,21.30
2019-04-26T22:05:03.532Z,21.30
2019-04-26T22:07:35.128Z,21.30
2019-04-26T22:10:14.357Z,21.30
2019-04-26T22:12:45.076Z,21.30
2019-04-26T22:15:23.524Z,21.30
2019-04-26T22:17:54.996Z,21.30
2019-04-26T22:20:35.482Z,21.30
2019-04-26T22:23:16.341Z,21.30
2019-04-26T22:25:48.638Z,21.40
2019-04-26T22:28:18.386Z,21.40
2019-04-26T22:30:48.155Z,21.40
2019-04-26T22:33:18.033Z,21.30
2019-04-26T22:35:50.481Z,21.30
2019-04-26T22:38:23.738Z,21.30
2019-04-26T22:40:54.692Z,21.30
2019-04-26T22:43:26.935Z,21.30
2019-04-26T22:45:58.359Z,21.30
2019-04-26T22:48:29.685Z,21.30
2019-04-26T22:51:00.825Z,21.30
2019-04-26T22:53:30.558Z,21.30
2019-04-26T22:56:01.468Z,21.30
2019-04-26T22:58:31.678Z,21.30
2019-04-26T23:01:03.537Z,21.30
2019-04-26T23:03:36.624Z,21.30
2019-04-26T23:06:07.803Z,21.30
2019-04-26T23:08:38.202Z,21.30
2019-04-26T23:11:09.084Z,21.30
2019-04-26T23:13:53.678Z,21.30
2019-04-26T23:16:26.198Z,21.30
2019-04-26T23:19:00.353Z,21.30
2019-04-26T23:21:31.791Z,21.30
2019-04-26T23:24:01.552Z,21.30
2019-04-26T23:26:31.405Z,21.30
2019-04-26T23:29:01.225Z,21.30
2019-04-26T23:31:31.014Z,21.30
2019-04-26T23:34:00.787Z,21.30
2019-04-26T23:36:30.551Z,21.30
2019-04-26T23:39:03.259Z,21.30
2019-04-26T23:41:37.553Z,21.30
2019-04-26T23:44:06.730Z,21.30
2019-04-26T23:46:36.659Z,21.30
2019-04-26T23:49:06.302Z,21.30
2019-04-26T23:51:38.341Z,21.30
2019-04-26T23:54:07.467Z,21.20
2019-04-26T23:56:37.218Z,21.20
2019-04-26T23:59:06.974Z,21.20
